Time;durP1;ratioP1;P1;durP2;ratioP2;P2;SDS_P1;SDS_P2;PMS_P1;PMS_P2;Temp;Humidity;BMP_temperature;BMP_pressure;BME280_temperature;BME280_humidity;BME280_pressure;Samples;Min_cycle;Max_cycle;Signal;HPM_P1;HPM_P2
2022/11/16 00:01:33;;;;;;;0.88;0.88;;;6.50;99.90;;;;;;4967383;28;20039;-67
2022/11/16 00:04:02;;;;;;;0.85;0.85;;;6.40;99.90;;;;;;4963472;28;20422;-66
2022/11/16 00:06:29;;;;;;;2.38;0.88;;;6.40;99.90;;;;;;4959927;28;20074;-67
2022/11/16 00:11:48;;;;;;;0.80;0.80;;;6.50;99.90;;;;;;4964967;28;20050;-66
2022/11/16 00:14:15;;;;;;;1.35;1.00;;;6.50;99.90;;;;;;4956488;28;20065;-65
2022/11/16 00:16:42;;;;;;;3.33;0.88;;;6.50;99.90;;;;;;4963057;28;20051;-65
2022/11/16 00:19:10;;;;;;;0.85;0.85;;;6.50;99.90;;;;;;4963785;28;20113;-64
2022/11/16 00:21:37;;;;;;;3.15;1.50;;;6.40;99.90;;;;;;4965352;28;20138;-66
2022/11/16 00:24:05;;;;;;;0.80;0.77;;;6.40;99.90;;;;;;4965612;28;20054;-66
2022/11/16 00:26:32;;;;;;;2.17;0.77;;;6.40;99.90;;;;;;4958274;28;20051;-64
2022/11/16 00:28:58;;;;;;;1.17;0.82;;;6.40;99.90;;;;;;4961699;28;20071;-65
2022/11/16 00:31:25;;;;;;;1.00;0.75;;;6.40;99.90;;;;;;4960402;28;20187;-66
2022/11/16 00:33:52;;;;;;;0.70;0.70;;;6.40;99.90;;;;;;4961464;28;20039;-66
2022/11/16 00:36:19;;;;;;;0.85;0.85;;;6.40;99.90;;;;;;4962714;28;20046;-65
2022/11/16 00:38:46;;;;;;;1.13;0.80;;;6.40;99.90;;;;;;4960805;28;20498;-65
2022/11/16 00:41:13;;;;;;;1.10;1.00;;;6.40;99.90;;;;;;4964777;28;20101;-66
2022/11/16 00:43:40;;;;;;;4.72;1.38;;;6.40;99.90;;;;;;4958059;28;20046;-65
2022/11/16 00:46:08;;;;;;;1.75;0.70;;;6.40;99.90;;;;;;4963161;28;20046;-67
2022/11/16 00:48:35;;;;;;;1.05;0.98;;;6.40;99.90;;;;;;4962024;28;20603;-66
2022/11/16 00:51:02;;;;;;;1.40;0.70;;;6.40;99.90;;;;;;4962261;28;20034;-64
2022/11/16 00:53:29;;;;;;;0.73;0.60;;;6.40;99.90;;;;;;4964078;28;20046;-65
2022/11/16 00:55:56;;;;;;;2.30;0.80;;;6.40;99.90;;;;;;4961466;28;20074;-68
2022/11/16 00:58:23;;;;;;;0.65;0.40;;;6.40;99.90;;;;;;4957398;28;20085;-64
2022/11/16 01:01:03;;;;;;;0.63;0.63;;;6.40;99.90;;;;;;4956990;28;20137;-64
2022/11/16 01:03:30;;;;;;;0.28;0.28;;;6.40;99.90;;;;;;4994347;28;20382;-64
2022/11/16 01:06:02;;;;;;;1.45;0.60;;;6.40;99.90;;;;;;4962857;28;20379;-69
2022/11/16 01:08:29;;;;;;;1.42;0.40;;;6.30;99.90;;;;;;4962866;28;20059;-65
2022/11/16 01:12:07;;;;;;;0.80;0.60;;;6.40;99.90;;;;;;4962745;28;20426;-66
2022/11/16 01:13:46;;;;;;;2.33;0.40;;;6.40;99.90;;;;;;4992158;28;20058;-64
2022/11/16 01:16:18;;;;;;;0.60;0.40;;;6.40;99.90;;;;;;4958300;28;20057;-68
2022/11/16 01:18:50;;;;;;;1.75;0.38;;;6.40;99.90;;;;;;4991960;28;20047;-64
2022/11/16 01:21:18;;;;;;;0.75;0.40;;;6.40;99.90;;;;;;4956431;28;20047;-65
2022/11/16 01:23:45;;;;;;;0.38;0.25;;;6.30;99.90;;;;;;4957303;28;20130;-64
2022/11/16 01:26:12;;;;;;;0.30;0.30;;;6.30;99.90;;;;;;4965283;28;20043;-66
2022/11/16 01:28:41;;;;;;;0.47;0.30;;;6.30;99.90;;;;;;4959515;28;20035;-64
2022/11/16 01:31:09;;;;;;;0.22;0.20;;;6.40;99.90;;;;;;4960052;28;20047;-65
2022/11/16 01:33:37;;;;;;;0.45;0.20;;;6.30;99.90;;;;;;4956156;28;20050;-64
2022/11/16 01:36:15;;;;;;;0.30;0.25;;;6.40;99.90;;;;;;4965800;28;20528;-69
2022/11/16 01:38:44;;;;;;;1.08;0.65;;;6.40;99.90;;;;;;4962784;28;20050;-66
2022/11/16 01:41:14;;;;;;;;;;;6.30;99.90;;;;;;4967853;28;20050;-67
2022/11/16 01:43:55;;;;;;;0.30;0.20;;;6.30;99.90;;;;;;4999221;28;19918;-64
2022/11/16 01:46:27;;;;;;;0.63;0.40;;;6.30;99.90;;;;;;4966028;28;20475;-71
2022/11/16 01:49:03;;;;;;;0.93;0.77;;;6.30;99.90;;;;;;4964001;28;20603;-64
2022/11/16 01:51:31;;;;;;;0.30;0.30;;;6.30;99.90;;;;;;4967403;28;20058;-64
2022/11/16 01:54:01;;;;;;;0.85;0.20;;;6.30;99.90;;;;;;4998664;28;20050;-67
2022/11/16 01:56:31;;;;;;;1.17;1.08;;;6.30;99.90;;;;;;4953010;28;20051;-65
2022/11/16 01:59:08;;;;;;;1.63;0.30;;;6.30;99.90;;;;;;4967183;28;20385;-65
2022/11/16 02:01:35;;;;;;;0.73;0.35;;;6.30;99.90;;;;;;4966973;28;20620;-67
2022/11/16 02:04:03;;;;;;;4.38;0.55;;;6.30;99.90;;;;;;4977964;28;20454;-64
2022/11/16 02:07:05;;;;;;;0.93;0.50;;;6.30;99.90;;;;;;4956369;28;20050;-65
2022/11/16 02:10:03;;;;;;;1.27;0.38;;;6.30;99.90;;;;;;4964688;28;20058;-64
2022/11/16 02:12:47;;;;;;;;;;;6.30;99.90;;;;;;4959288;28;20384;-65
2022/11/16 02:15:45;;;;;;;1.67;0.40;;;6.30;99.90;;;;;;4959232;28;19949;-64
2022/11/16 02:18:20;;;;;;;1.43;0.50;;;6.30;99.90;;;;;;4964801;28;20107;-65
2022/11/16 02:20:57;;;;;;;1.02;0.30;;;6.30;99.90;;;;;;4967156;28;20285;-65
2022/11/16 02:23:56;;;;;;;0.57;0.57;;;6.30;99.90;;;;;;4968270;28;20883;-65
2022/11/16 02:26:31;;;;;;;0.30;0.30;;;6.30;99.90;;;;;;4962016;28;20116;-64
2022/11/16 02:29:13;;;;;;;1.13;0.20;;;6.30;99.90;;;;;;4960975;28;20051;-64
2022/11/16 02:31:50;;;;;;;1.55;0.50;;;6.30;99.90;;;;;;4963131;28;20051;-65
2022/11/16 02:34:20;;;;;;;2.35;0.28;;;6.20;99.90;;;;;;4976540;28;20045;-65
2022/11/16 02:36:51;;;;;;;0.95;0.32;;;6.20;99.90;;;;;;4961355;28;20162;-65
2022/11/16 02:39:21;;;;;;;0.30;0.30;;;6.20;99.90;;;;;;4992943;28;20054;-65
2022/11/16 02:41:51;;;;;;;0.52;0.38;;;6.20;99.90;;;;;;4993557;28;20121;-65
2022/11/16 02:44:23;;;;;;;0.32;0.20;;;6.20;99.90;;;;;;4957300;28;20151;-64
2022/11/16 02:46:56;;;;;;;0.40;0.40;;;6.20;99.90;;;;;;4956653;28;20069;-64
2022/11/16 02:49:25;;;;;;;0.73;0.70;;;6.20;99.90;;;;;;4964822;28;20130;-65
2022/11/16 02:51:53;;;;;;;1.80;0.52;;;6.20;99.90;;;;;;4964051;28;20057;-67
2022/11/16 02:54:23;;;;;;;4.28;0.57;;;6.10;99.90;;;;;;4959204;28;20050;-65
2022/11/16 02:57:01;;;;;;;0.28;0.28;;;6.10;99.90;;;;;;4981203;28;20044;-66
2022/11/16 02:59:32;;;;;;;0.32;0.22;;;6.10;99.90;;;;;;4976842;28;20047;-65
2022/11/16 03:02:24;;;;;;;2.13;0.40;;;6.10;99.90;;;;;;4966776;28;20174;-65
2022/11/16 03:05:07;;;;;;;0.85;0.47;;;6.10;99.90;;;;;;4962050;28;20042;-64
2022/11/16 03:07:54;;;;;;;0.55;0.28;;;6.20;99.90;;;;;;4960283;28;20047;-65
2022/11/16 03:13:09;;;;;;;0.40;0.30;;;6.20;99.90;;;;;;4994374;28;20050;-64
2022/11/16 03:15:39;;;;;;;0.40;0.30;;;6.10;99.90;;;;;;4963372;28;20039;-67
2022/11/16 03:18:08;;;;;;;1.67;0.50;;;6.10;99.90;;;;;;4981751;28;20142;-68
2022/11/16 03:20:37;;;;;;;0.70;0.60;;;6.10;99.90;;;;;;4964716;28;20126;-66
2022/11/16 03:23:08;;;;;;;0.63;0.63;;;6.10;99.90;;;;;;4976616;28;20051;-66
2022/11/16 03:25:49;;;;;;;0.50;0.50;;;6.10;99.90;;;;;;4959575;28;20050;-66
2022/11/16 03:28:29;;;;;;;0.65;0.65;;;6.10;99.90;;;;;;4957137;28;20461;-64
2022/11/16 03:31:11;;;;;;;0.32;0.32;;;6.10;99.90;;;;;;4994301;28;20438;-65
2022/11/16 03:33:48;;;;;;;0.65;0.30;;;6.10;99.90;;;;;;4967876;28;20039;-65
2022/11/16 03:36:33;;;;;;;2.67;0.50;;;6.10;99.90;;;;;;4956097;28;20047;-65
2022/11/16 03:39:09;;;;;;;1.95;0.32;;;6.10;99.90;;;;;;4961868;28;20105;-64
2022/11/16 03:41:40;;;;;;;0.30;0.30;;;6.10;99.90;;;;;;4996280;28;20133;-64
2022/11/16 03:44:10;;;;;;;0.50;0.50;;;6.10;99.90;;;;;;4964662;28;20057;-67
2022/11/16 03:46:40;;;;;;;0.60;0.40;;;6.10;99.90;;;;;;4962784;28;20049;-67
2022/11/16 03:49:08;;;;;;;0.30;0.30;;;6.10;99.90;;;;;;4960483;28;20055;-65
2022/11/16 03:51:37;;;;;;;1.17;0.52;;;6.10;99.90;;;;;;4958946;28;20047;-64
2022/11/16 03:54:04;;;;;;;0.40;0.30;;;6.00;99.90;;;;;;4963669;28;20085;-65
2022/11/16 03:56:32;;;;;;;0.40;0.40;;;6.00;99.90;;;;;;4959097;28;20044;-65
2022/11/16 03:59:00;;;;;;;0.35;0.30;;;6.00;99.90;;;;;;4959250;28;20512;-66
2022/11/16 04:01:29;;;;;;;0.55;0.40;;;6.10;99.90;;;;;;4962452;28;20043;-64
2022/11/16 04:03:56;;;;;;;2.00;1.88;;;6.00;99.90;;;;;;4959159;28;20058;-65
2022/11/16 04:26:13;;;;;;;0.40;0.40;;;6.00;99.90;;;;;;4981888;28;20034;-64
2022/11/16 04:28:40;;;;;;;1.30;0.38;;;6.00;99.90;;;;;;4961364;28;20449;-65
2022/11/16 04:39:39;;;;;;;0.60;0.30;;;6.00;99.90;;;;;;4974193;28;20046;-65
2022/11/16 04:42:18;;;;;;;0.47;0.47;;;6.00;99.90;;;;;;4964844;28;20128;-65
2022/11/16 04:47:42;;;;;;;0.43;0.30;;;6.10;99.90;;;;;;4955735;28;20066;-66
2022/11/16 04:50:11;;;;;;;2.17;0.57;;;6.10;99.90;;;;;;4959003;28;20039;-65
2022/11/16 04:52:39;;;;;;;0.77;0.57;;;6.10;99.90;;;;;;4963259;28;20047;-65
2022/11/16 04:55:10;;;;;;;0.45;0.30;;;6.10;99.90;;;;;;4960287;28;20075;-66
2022/11/16 04:57:37;;;;;;;0.85;0.20;;;6.10;99.90;;;;;;4992872;28;20133;-65
2022/11/16 05:00:05;;;;;;;0.20;0.20;;;6.10;99.90;;;;;;4979875;28;20374;-68
2022/11/16 05:02:34;;;;;;;0.38;0.20;;;6.10;99.90;;;;;;4973102;28;20883;-66
2022/11/16 05:05:01;;;;;;;0.32;0.32;;;6.00;99.90;;;;;;4962098;28;20079;-64
2022/11/16 05:07:29;;;;;;;0.30;0.30;;;6.00;99.90;;;;;;4959091;28;20061;-69
2022/11/16 05:10:09;;;;;;;0.73;0.50;;;6.00;99.90;;;;;;4964126;28;20046;-65
2022/11/16 05:12:37;;;;;;;1.65;1.10;;;6.00;99.90;;;;;;4961330;28;20133;-64
2022/11/16 05:15:07;;;;;;;0.95;0.80;;;6.00;99.90;;;;;;4960363;28;20047;-67
2022/11/16 05:17:35;;;;;;;2.17;0.60;;;6.00;99.90;;;;;;4963137;28;20125;-65
2022/11/16 05:22:58;;;;;;;2.88;0.47;;;6.00;99.90;;;;;;4936568;28;20051;-65
2022/11/16 05:25:29;;;;;;;0.47;0.47;;;6.00;99.90;;;;;;4944160;28;20134;-65
2022/11/16 05:28:04;;;;;;;1.20;0.52;;;6.00;99.90;;;;;;4938923;28;20070;-64
2022/11/16 05:30:35;;;;;;;2.97;0.30;;;6.00;99.90;;;;;;4938213;28;20051;-67
2022/11/16 05:33:02;;;;;;;1.23;0.55;;;6.10;99.90;;;;;;4943322;28;20160;-64
2022/11/16 05:35:32;;;;;;;4.07;0.57;;;6.00;99.90;;;;;;4944476;28;20051;-66
2022/11/16 05:38:00;;;;;;;0.47;0.28;;;6.00;99.90;;;;;;4939371;28;20418;-65
2022/11/16 05:40:28;;;;;;;0.45;0.40;;;6.00;99.90;;;;;;4972199;28;20066;-66
2022/11/16 05:42:57;;;;;;;2.63;0.30;;;6.00;99.90;;;;;;4945328;28;20432;-65
2022/11/16 05:45:27;;;;;;;1.00;0.90;;;6.00;99.90;;;;;;4942737;28;20039;-66
2022/11/16 05:47:55;;;;;;;15.85;1.05;;;6.00;99.90;;;;;;4967165;28;20157;-63
2022/11/16 05:50:22;;;;;;;1.17;0.40;;;6.00;99.90;;;;;;4985315;28;20066;-65
2022/11/16 05:53:02;;;;;;;0.40;0.40;;;6.00;99.90;;;;;;4957970;28;20090;-64
2022/11/16 05:55:29;;;;;;;2.22;0.63;;;6.00;99.90;;;;;;4961821;28;20360;-65
2022/11/16 05:57:55;;;;;;;0.30;0.30;;;6.00;99.90;;;;;;4993342;28;20141;-67
2022/11/16 06:00:23;;;;;;;1.10;0.75;;;6.00;99.90;;;;;;4957579;28;20172;-66
2022/11/16 06:02:52;;;;;;;5.18;0.63;;;6.00;99.90;;;;;;4975323;28;20082;-65
2022/11/16 06:05:24;;;;;;;1.20;0.60;;;6.00;99.90;;;;;;4959575;28;20062;-65
2022/11/16 06:07:53;;;;;;;1.20;0.60;;;6.00;99.90;;;;;;4956736;28;20051;-65
2022/11/16 06:10:20;;;;;;;2.03;0.60;;;6.00;99.90;;;;;;4960366;28;20330;-67
2022/11/16 06:12:49;;;;;;;0.90;0.60;;;6.00;99.90;;;;;;4955666;28;20071;-66
2022/11/16 06:15:17;;;;;;;1.38;0.30;;;6.00;99.90;;;;;;4953485;28;20055;-67
2022/11/16 06:17:44;;;;;;;1.02;0.47;;;6.00;99.90;;;;;;4960266;28;20047;-66
2022/11/16 06:20:11;;;;;;;1.55;0.60;;;6.00;99.90;;;;;;4959162;28;20066;-67
2022/11/16 06:22:39;;;;;;;4.55;0.90;;;6.00;99.90;;;;;;4960703;28;20125;-66
2022/11/16 06:25:07;;;;;;;1.13;0.93;;;6.00;99.90;;;;;;5000411;28;20059;-66
2022/11/16 06:27:39;;;;;;;2.13;0.80;;;5.90;99.90;;;;;;4967864;28;20384;-68
2022/11/16 06:30:07;;;;;;;2.77;1.03;;;5.90;99.90;;;;;;4956546;28;20388;-66
2022/11/16 06:32:35;;;;;;;1.05;0.45;;;6.00;99.90;;;;;;4997752;28;20315;-69
2022/11/16 06:35:03;;;;;;;0.68;0.68;;;6.00;99.90;;;;;;4963937;28;20062;-67
2022/11/16 06:37:31;;;;;;;0.70;0.50;;;6.00;99.90;;;;;;4963394;28;20043;-71
2022/11/16 06:39:58;;;;;;;0.80;0.60;;;5.90;99.90;;;;;;4966399;28;20077;-70
2022/11/16 06:42:26;;;;;;;2.55;1.00;;;6.00;99.90;;;;;;4958461;28;20122;-66
2022/11/16 06:44:54;;;;;;;0.38;0.38;;;6.00;99.90;;;;;;4963033;28;20050;-67
2022/11/16 06:47:26;;;;;;;0.95;0.60;;;6.00;99.90;;;;;;4964898;28;20046;-66
2022/11/16 06:49:53;;;;;;;2.00;0.77;;;6.00;99.90;;;;;;4961765;28;20119;-66
2022/11/16 06:52:22;;;;;;;0.57;0.40;;;6.00;99.90;;;;;;4955254;28;20082;-66
2022/11/16 06:54:49;;;;;;;0.43;0.40;;;6.00;99.90;;;;;;4946167;28;20051;-65
2022/11/16 06:57:16;;;;;;;1.85;0.30;;;5.90;99.90;;;;;;4945060;28;20372;-65
2022/11/16 06:59:44;;;;;;;3.03;0.65;;;6.00;99.90;;;;;;4939682;28;20039;-66
2022/11/16 07:02:11;;;;;;;0.35;0.35;;;5.90;99.90;;;;;;4974133;28;20039;-65
2022/11/16 07:04:39;;;;;;;1.50;0.38;;;5.90;99.90;;;;;;4942770;28;20373;-64
2022/11/16 07:07:06;;;;;;;0.75;0.40;;;5.90;99.90;;;;;;4974256;28;20067;-66
2022/11/16 07:09:35;;;;;;;2.28;1.45;;;5.90;99.90;;;;;;4945644;28;20102;-65
2022/11/16 07:12:03;;;;;;;1.25;0.40;;;5.90;99.90;;;;;;4943837;28;20106;-65
2022/11/16 07:14:35;;;;;;;1.65;0.35;;;5.90;99.90;;;;;;4969799;28;20216;-64
2022/11/16 07:17:04;;;;;;;0.63;0.38;;;5.90;99.90;;;;;;4946016;28;20047;-66
2022/11/16 07:19:35;;;;;;;1.65;0.52;;;5.90;99.90;;;;;;4954944;28;20043;-66
2022/11/16 07:22:03;;;;;;;0.77;0.60;;;5.90;99.90;;;;;;4967317;28;20133;-67
2022/11/16 07:24:31;;;;;;;0.50;0.50;;;5.90;99.90;;;;;;4960837;28;20445;-64
2022/11/16 07:26:58;;;;;;;1.42;0.88;;;5.90;99.90;;;;;;4957470;28;20378;-65
2022/11/16 07:29:30;;;;;;;5.05;0.95;;;5.90;99.90;;;;;;4990658;28;20053;-66
2022/11/16 07:32:23;;;;;;;1.50;0.30;;;5.90;99.90;;;;;;4961623;28;20058;-66
2022/11/16 07:35:03;;;;;;;3.20;0.57;;;5.90;99.90;;;;;;4965735;28;20661;-65
2022/11/16 07:37:30;;;;;;;1.88;0.60;;;5.90;99.90;;;;;;4960024;28;20059;-65
2022/11/16 07:39:57;;;;;;;1.23;0.63;;;5.90;99.90;;;;;;4962169;28;20109;-64
2022/11/16 07:42:24;;;;;;;0.50;0.50;;;5.90;99.90;;;;;;4971506;28;20059;-68
2022/11/16 07:45:27;;;;;;;1.13;0.88;;;5.90;99.90;;;;;;4958255;28;20047;-67
2022/11/16 07:47:57;;;;;;;0.50;0.30;;;6.00;99.90;;;;;;4964042;28;20403;-65
2022/11/16 07:50:47;;;;;;;0.30;0.30;;;6.00;99.90;;;;;;4946332;28;20042;-67
2022/11/16 07:53:15;;;;;;;4.97;0.60;;;6.00;99.90;;;;;;4997672;28;20067;-66
2022/11/16 07:55:43;;;;;;;1.10;0.32;;;6.00;99.90;;;;;;4960762;28;20511;-69
2022/11/16 07:58:09;;;;;;;0.75;0.55;;;6.00;99.90;;;;;;4962877;28;20103;-65
2022/11/16 08:00:37;;;;;;;0.38;0.32;;;6.00;99.90;;;;;;4961501;28;20050;-65
2022/11/16 08:03:12;;;;;;;2.67;0.85;;;6.00;99.90;;;;;;4965715;28;20050;-65
2022/11/16 08:05:40;;;;;;;1.27;0.43;;;6.00;99.90;;;;;;4962018;28;20055;-66
2022/11/16 08:08:07;;;;;;;1.67;1.35;;;6.00;99.90;;;;;;4978457;28;20142;-69
2022/11/16 08:10:36;;;;;;;3.42;0.40;;;6.00;99.90;;;;;;4960131;28;20035;-65
2022/11/16 08:13:03;;;;;;;3.20;0.50;;;6.10;99.90;;;;;;4965072;28;20053;-70
2022/11/16 08:15:30;;;;;;;0.30;0.25;;;6.10;99.90;;;;;;4961828;28;20138;-65
2022/11/16 08:18:00;;;;;;;1.15;0.68;;;6.10;99.90;;;;;;4962909;28;20046;-68
2022/11/16 08:20:27;;;;;;;2.22;0.55;;;6.10;99.90;;;;;;4962450;28;20096;-65
2022/11/16 08:22:59;;;;;;;1.88;0.55;;;6.10;99.90;;;;;;4961774;28;20488;-65
2022/11/16 08:25:27;;;;;;;2.63;0.75;;;6.10;99.90;;;;;;4995134;28;20255;-66
2022/11/16 08:27:53;;;;;;;2.35;0.30;;;6.10;99.90;;;;;;4959634;28;20085;-68
2022/11/16 08:30:22;;;;;;;1.17;0.52;;;6.10;99.90;;;;;;4953636;28;20063;-67
2022/11/16 08:32:49;;;;;;;2.55;0.68;;;6.20;99.90;;;;;;4958431;28;20121;-64
2022/11/16 08:35:16;;;;;;;0.30;0.30;;;6.20;99.90;;;;;;4954281;28;20051;-66
2022/11/16 08:37:44;;;;;;;0.60;0.43;;;6.20;99.90;;;;;;4938575;28;20043;-71
2022/11/16 08:40:11;;;;;;;0.30;0.30;;;6.20;99.90;;;;;;4956398;28;20126;-65
2022/11/16 08:42:38;;;;;;;0.88;0.38;;;6.20;99.90;;;;;;4955099;28;20051;-65
2022/11/16 08:45:10;;;;;;;0.40;0.30;;;6.20;99.90;;;;;;4935675;28;20055;-64
2022/11/16 08:47:37;;;;;;;3.22;0.50;;;6.20;99.90;;;;;;4944557;28;20051;-65
2022/11/16 08:50:06;;;;;;;0.55;0.30;;;6.20;99.90;;;;;;4959990;28;20039;-64
2022/11/16 08:52:33;;;;;;;0.98;0.43;;;6.20;99.90;;;;;;4938361;28;20043;-67
2022/11/16 08:55:01;;;;;;;3.05;0.60;;;6.30;99.90;;;;;;4944995;28;20043;-65
2022/11/16 08:57:29;;;;;;;1.45;1.05;;;6.30;99.90;;;;;;4947293;28;20109;-65
2022/11/16 08:59:58;;;;;;;4.47;0.65;;;6.30;99.90;;;;;;4945277;28;20086;-64
2022/11/16 09:02:25;;;;;;;0.75;0.73;;;6.30;99.90;;;;;;4943552;28;20524;-66
2022/11/16 09:04:53;;;;;;;1.85;0.40;;;6.30;99.90;;;;;;4941382;28;20051;-64
2022/11/16 09:07:20;;;;;;;2.22;0.35;;;6.30;99.90;;;;;;4940853;28;20142;-65
2022/11/16 09:09:47;;;;;;;1.35;0.50;;;6.30;99.90;;;;;;4946089;28;20047;-65
2022/11/16 09:12:15;;;;;;;0.32;0.30;;;6.30;99.90;;;;;;4944864;28;20043;-64
2022/11/16 09:14:41;;;;;;;5.72;0.57;;;6.30;99.90;;;;;;4937194;28;20067;-65
2022/11/16 09:17:08;;;;;;;1.92;0.50;;;6.40;99.90;;;;;;4945257;28;20051;-65
2022/11/16 09:19:35;;;;;;;2.15;0.30;;;6.40;99.90;;;;;;4944703;28;20062;-67
2022/11/16 09:22:02;;;;;;;2.30;0.50;;;6.40;99.90;;;;;;4942810;28;20047;-65
2022/11/16 09:24:30;;;;;;;0.60;0.50;;;6.30;99.90;;;;;;4943795;28;20050;-66
2022/11/16 09:27:00;;;;;;;0.77;0.50;;;6.40;99.90;;;;;;4943320;28;20048;-66
2022/11/16 09:29:27;;;;;;;3.03;0.60;;;6.40;99.90;;;;;;4942110;28;20338;-67
2022/11/16 09:31:54;;;;;;;1.38;0.30;;;6.40;99.90;;;;;;4940865;28;20134;-65
2022/11/16 09:34:21;;;;;;;0.85;0.22;;;6.40;99.90;;;;;;4937564;28;20079;-67
2022/11/16 09:36:48;;;;;;;0.85;0.52;;;6.40;99.90;;;;;;4942137;28;20058;-65
2022/11/16 09:39:15;;;;;;;1.27;0.30;;;6.40;99.90;;;;;;4946580;28;20043;-67
2022/11/16 09:42:15;;;;;;;1.02;0.60;;;6.40;99.90;;;;;;4941665;28;20047;-65
2022/11/16 09:45:17;;;;;;;0.70;0.38;;;6.40;99.90;;;;;;4943375;28;20553;-65
2022/11/16 09:47:58;;;;;;;3.22;0.30;;;6.40;99.90;;;;;;4942308;28;20052;-65
2022/11/16 09:50:27;;;;;;;;;;;6.40;99.90;;;;;;4938129;28;20367;-69
2022/11/16 09:52:58;;;;;;;1.85;1.02;;;6.40;99.90;;;;;;4942040;28;20011;-68
2022/11/16 09:55:50;;;;;;;4.47;1.48;;;6.40;99.90;;;;;;4940802;28;20580;-67
2022/11/16 09:58:24;;;;;;;2.45;0.50;;;6.40;99.90;;;;;;4942476;28;20183;-64
2022/11/16 10:00:58;;;;;;;2.25;0.50;;;6.40;99.90;;;;;;4944122;28;20043;-64
2022/11/16 10:03:30;;;;;;;1.08;0.40;;;6.40;99.90;;;;;;4947205;28;20053;-67
2022/11/16 10:06:05;;;;;;;2.35;0.30;;;6.40;99.90;;;;;;4960921;28;20114;-69
2022/11/16 10:08:40;;;;;;;0.45;0.40;;;6.40;99.90;;;;;;4962491;28;20077;-65
2022/11/16 10:11:28;;;;;;;2.00;0.30;;;6.40;99.90;;;;;;4969943;28;20504;-66
2022/11/16 10:14:04;;;;;;;1.52;1.42;;;6.40;99.90;;;;;;4962856;28;20497;-65
2022/11/16 10:16:44;;;;;;;1.77;0.30;;;6.40;99.90;;;;;;4962035;28;20470;-70
2022/11/16 10:19:23;;;;;;;0.73;0.40;;;6.40;99.90;;;;;;4964801;28;20053;-66
2022/11/16 10:22:14;;;;;;;1.55;0.50;;;6.30;99.90;;;;;;4965576;28;20063;-65
2022/11/16 10:24:55;;;;;;;1.65;0.38;;;6.30;99.90;;;;;;4953082;28;20103;-65
2022/11/16 10:27:33;;;;;;;0.40;0.40;;;6.30;99.90;;;;;;4967327;28;20042;-67
2022/11/16 10:30:20;;;;;;;2.40;0.50;;;6.30;99.90;;;;;;4963244;28;20154;-65
2022/11/16 10:32:52;;;;;;;0.80;0.40;;;6.40;99.90;;;;;;4961623;28;20038;-66
2022/11/16 10:35:41;;;;;;;0.38;0.38;;;6.40;99.90;;;;;;4966399;28;20066;-65
2022/11/16 10:38:24;;;;;;;0.55;0.32;;;6.40;99.90;;;;;;4963964;28;20046;-66
2022/11/16 10:41:13;;;;;;;0.47;0.40;;;6.40;99.90;;;;;;4963713;28;20045;-65
2022/11/16 10:43:42;;;;;;;0.52;0.43;;;6.40;99.90;;;;;;4963153;28;20050;-65
2022/11/16 10:46:16;;;;;;;1.42;0.43;;;6.40;99.90;;;;;;4959976;28;20147;-65
2022/11/16 10:49:21;;;;;;;2.22;0.47;;;6.40;99.90;;;;;;4965165;28;20508;-64
2022/11/16 10:51:48;;;;;;;1.30;0.70;;;6.40;99.90;;;;;;4962488;28;20047;-65
2022/11/16 10:54:16;;;;;;;1.67;0.60;;;6.40;99.90;;;;;;4966884;28;20378;-66
2022/11/16 10:56:48;;;;;;;2.20;0.75;;;6.40;99.90;;;;;;4962890;28;20051;-66
2022/11/16 10:59:18;;;;;;;1.00;0.30;;;6.40;99.90;;;;;;4963481;28;20709;-66
2022/11/16 11:01:50;;;;;;;1.73;0.60;;;6.40;99.90;;;;;;4966444;28;20555;-68
2022/11/16 11:04:25;;;;;;;0.85;0.77;;;6.40;99.90;;;;;;4965037;28;20328;-66
2022/11/16 11:06:55;;;;;;;1.15;0.63;;;6.40;99.90;;;;;;4963185;28;20553;-66
2022/11/16 11:09:33;;;;;;;1.00;0.40;;;6.40;99.90;;;;;;4966934;28;20047;-67
2022/11/16 11:15:24;;;;;;;0.82;0.57;;;6.40;99.90;;;;;;4958074;28;20506;-69
2022/11/16 11:18:14;;;;;;;2.05;0.60;;;6.50;99.90;;;;;;4957584;28;20097;-65
2022/11/16 11:20:45;;;;;;;0.90;0.57;;;6.40;99.90;;;;;;4962206;28;20134;-65
2022/11/16 11:23:22;;;;;;;1.02;0.93;;;6.40;99.90;;;;;;4963537;28;20134;-66
2022/11/16 11:25:59;;;;;;;2.42;2.20;;;6.40;99.90;;;;;;4962125;28;20830;-65
2022/11/16 11:28:30;;;;;;;0.95;0.93;;;6.40;99.90;;;;;;4961718;28;20485;-66
2022/11/16 11:31:24;;;;;;;1.90;0.40;;;6.40;99.90;;;;;;4963103;28;20902;-66
2022/11/16 11:33:58;;;;;;;0.68;0.65;;;6.40;99.90;;;;;;4962458;28;20053;-64
2022/11/16 11:36:38;;;;;;;3.05;1.23;;;6.40;99.90;;;;;;4964383;28;20101;-67
2022/11/16 11:39:25;;;;;;;0.50;0.50;;;6.40;99.90;;;;;;4964430;28;20051;-70
2022/11/16 11:42:11;;;;;;;1.65;0.40;;;6.40;99.90;;;;;;4957592;28;20050;-66
2022/11/16 11:44:55;;;;;;;4.82;2.85;;;6.40;99.90;;;;;;4958617;28;20059;-66
2022/11/16 11:47:43;;;;;;;3.42;1.45;;;6.40;99.90;;;;;;4958888;28;20031;-66
2022/11/16 11:50:40;;;;;;;1.33;0.82;;;6.40;99.90;;;;;;4956686;28;20404;-66
2022/11/16 11:53:26;;;;;;;0.95;0.60;;;6.40;99.90;;;;;;4962208;28;20071;-66
2022/11/16 11:55:58;;;;;;;2.90;1.65;;;6.40;99.90;;;;;;4962486;28;20098;-66
2022/11/16 11:58:37;;;;;;;2.97;0.93;;;6.40;99.90;;;;;;4957509;28;20050;-65
2022/11/16 12:01:34;;;;;;;1.38;0.80;;;6.40;99.90;;;;;;4960170;28;20042;-69
2022/11/16 12:04:20;;;;;;;2.55;0.93;;;6.40;99.90;;;;;;4958484;28;20125;-65
2022/11/16 12:06:53;;;;;;;2.90;1.55;;;6.40;99.90;;;;;;4960233;28;20081;-65
2022/11/16 12:09:39;;;;;;;1.38;0.85;;;6.40;99.90;;;;;;4966258;28;20090;-67
2022/11/16 12:12:15;;;;;;;0.52;0.40;;;6.40;99.90;;;;;;4963764;28;20076;-66
2022/11/16 12:15:06;;;;;;;1.00;0.73;;;6.40;99.90;;;;;;4958356;28;20468;-67
2022/11/16 12:18:01;;;;;;;1.92;0.45;;;6.40;99.90;;;;;;4956385;28;20101;-68
2022/11/16 12:20:42;;;;;;;1.45;0.40;;;6.40;99.90;;;;;;4959147;28;20049;-68
2022/11/16 12:23:34;;;;;;;0.30;0.30;;;6.30;99.90;;;;;;4962060;28;20433;-66
2022/11/16 12:26:19;;;;;;;1.73;0.70;;;6.30;99.90;;;;;;4957765;28;20050;-65
2022/11/16 12:29:09;;;;;;;6.30;1.70;;;6.30;99.90;;;;;;4962972;28;20039;-69
2022/11/16 12:31:38;;;;;;;0.40;0.40;;;6.20;99.90;;;;;;4957811;28;20062;-67
2022/11/16 12:34:27;;;;;;;0.55;0.38;;;6.20;99.90;;;;;;4956580;28;20054;-66
2022/11/16 12:37:00;;;;;;;1.48;0.32;;;6.20;99.90;;;;;;4961068;28;20039;-65
2022/11/16 12:39:38;;;;;;;3.65;0.80;;;6.20;99.90;;;;;;4961633;28;20513;-70
2022/11/16 12:42:08;;;;;;;0.50;0.50;;;6.20;99.90;;;;;;4961787;28;20476;-65
2022/11/16 12:44:54;;;;;;;0.82;0.60;;;6.20;99.90;;;;;;4962850;28;20046;-66
2022/11/16 12:47:33;;;;;;;3.75;1.63;;;6.20;99.90;;;;;;4966731;28;20070;-66
2022/11/16 12:50:12;;;;;;;1.00;0.70;;;6.20;99.90;;;;;;4964290;28;20038;-69
2022/11/16 12:52:52;;;;;;;0.60;0.60;;;6.20;99.90;;;;;;4954624;28;20075;-66
2022/11/16 12:55:23;;;;;;;;;;;6.20;99.90;;;;;;4965802;28;20358;-65
2022/11/16 12:58:11;;;;;;;1.13;0.40;;;6.20;99.90;;;;;;4962311;28;19944;-67
2022/11/16 13:01:17;;;;;;;0.75;0.40;;;6.10;99.90;;;;;;4957294;28;20047;-67
2022/11/16 13:03:53;;;;;;;1.60;0.82;;;6.10;99.90;;;;;;4961848;28;20065;-66
2022/11/16 13:06:29;;;;;;;0.57;0.57;;;6.00;99.90;;;;;;4964628;28;20401;-65
2022/11/16 13:09:05;;;;;;;1.58;0.30;;;6.00;99.90;;;;;;4973700;28;20430;-69
2022/11/16 13:11:40;;;;;;;1.27;0.30;;;6.10;99.90;;;;;;4964131;28;20051;-65
2022/11/16 13:14:35;;;;;;;1.20;0.25;;;6.00;99.90;;;;;;4961138;28;20481;-69
2022/11/16 13:17:03;;;;;;;0.65;0.30;;;6.00;99.90;;;;;;4960898;28;20057;-66
2022/11/16 13:19:31;;;;;;;0.38;0.38;;;6.00;99.90;;;;;;4960286;28;20087;-66
2022/11/16 13:22:06;;;;;;;3.63;0.68;;;6.00;99.90;;;;;;4965680;28;20050;-68
2022/11/16 13:25:10;;;;;;;0.47;0.47;;;6.00;99.90;;;;;;4960157;28;20062;-65
2022/11/16 13:27:48;;;;;;;0.70;0.63;;;6.00;99.90;;;;;;4963016;28;20495;-68
2022/11/16 13:30:24;;;;;;;0.45;0.40;;;6.00;99.90;;;;;;4961379;28;20075;-66
2022/11/16 13:33:16;;;;;;;2.20;0.60;;;6.00;99.90;;;;;;4960938;28;20150;-67
2022/11/16 13:35:43;;;;;;;1.58;0.70;;;6.00;99.90;;;;;;4963843;28;20049;-66
2022/11/16 13:38:12;;;;;;;0.73;0.73;;;6.00;99.90;;;;;;4966809;28;20054;-65
2022/11/16 13:40:39;;;;;;;1.23;1.10;;;6.00;99.90;;;;;;4965757;28;20149;-67
2022/11/16 13:43:09;;;;;;;0.77;0.60;;;6.00;99.90;;;;;;4965881;28;20424;-65
2022/11/16 13:45:48;;;;;;;0.75;0.75;;;5.90;99.90;;;;;;4966937;28;20133;-65
2022/11/16 13:48:35;;;;;;;0.73;0.68;;;5.80;99.90;;;;;;4963821;28;20050;-65
2022/11/16 13:51:06;;;;;;;0.95;0.80;;;5.80;99.90;;;;;;4964333;28;20049;-67
2022/11/16 13:53:38;;;;;;;1.63;0.80;;;5.70;99.90;;;;;;4968607;28;20511;-66
2022/11/16 13:56:25;;;;;;;0.45;0.30;;;5.60;99.90;;;;;;4959373;28;20042;-69
2022/11/16 13:58:56;;;;;;;1.75;1.05;;;5.60;99.90;;;;;;4964940;28;20162;-66
2022/11/16 14:01:23;;;;;;;1.55;1.23;;;5.60;99.90;;;;;;4962327;28;20171;-65
2022/11/16 14:04:11;;;;;;;1.67;0.88;;;5.60;99.90;;;;;;4964257;28;20469;-69
2022/11/16 14:06:44;;;;;;;5.63;1.10;;;5.60;99.90;;;;;;4964108;28;20049;-68
2022/11/16 14:09:40;;;;;;;0.50;0.50;;;5.60;99.90;;;;;;4966884;28;20047;-66
2022/11/16 14:12:37;;;;;;;0.70;0.70;;;5.60;99.90;;;;;;4966246;28;20257;-66
2022/11/16 14:15:15;;;;;;;2.25;1.25;;;5.60;99.90;;;;;;4962621;28;20046;-65